EGPH/EDI METAR and TAF weather

Enter ICAO airport designator
Station Type Date Time Source
EGPH METAR 2020/06/06 20:20 UTC NOAA

EGPH 062020Z 33006KT 260V010 9999 -RA BKN023 BKN045 13/09 Q1001


Station Type Date Time Source
EGPH Decoded METAR 2020/06/06 20:20 UTC NOAA

Edinburgh Airport, United Kingdom (EGPH) 55-57N 003-21W 0M
Jun 06, 2020 - 04:20 PM EDT / 2020.06.06 2020 UTC
Wind: from the NNW (330 degrees) at 7 MPH (6 KT) (direction variable):0
Visibility: greater than 7 mile(s):0
Sky conditions: mostly cloudy
Weather: light rain
Temperature: 55 F (13 C)
Dew Point: 48 F (9 C)
Relative Humidity: 76%
Pressure (altimeter): 29.56 in. Hg (1001 hPa)
ob: EGPH 062020Z 33006KT 260V010 9999 -RA BKN023 BKN045 13/09 Q1001
cycle: 20

Station Type Date Time Source
EGPH TAF 2020/06/06 18:09 UTC NOAA

TAF EGPH 061700Z 0618/0718 35008KT 9999 SCT020 PROB40
TEMPO 0618/0624 7000 RA SHRA
BECMG 0709/0712 07010KT

Example: see airport list